createdAt,value
2019-05-05T13:01:09.294Z,98349.08
2019-05-05T13:03:38.050Z,98356.62
2019-05-05T13:06:06.798Z,98352.42
2019-05-05T13:08:36.491Z,98355.09
2019-05-05T13:11:05.208Z,98366.31
2019-05-05T13:13:34.620Z,98367.66
2019-05-05T13:16:04.305Z,98368.47
2019-05-05T13:18:33.934Z,98369.31
2019-05-05T13:21:19.490Z,98368.88
2019-05-05T13:24:01.832Z,98375.51
2019-05-05T13:26:48.285Z,98385.94
2019-05-05T13:29:17.003Z,98383.77
2019-05-05T13:31:45.737Z,98384.32
2019-05-05T13:34:14.955Z,98384.27
2019-05-05T13:36:44.252Z,98378.31
2019-05-05T13:39:14.458Z,98378.40
2019-05-05T13:41:44.898Z,98384.56
2019-05-05T13:44:15.311Z,98384.08
2019-05-05T13:46:44.593Z,98388.80
2019-05-05T13:49:18.256Z,98396.35
2019-05-05T13:51:46.978Z,98393.53
2019-05-05T13:54:15.708Z,98399.41
2019-05-05T13:56:44.672Z,98391.31
2019-05-05T13:59:14.802Z,98380.75
2019-05-05T14:01:44.776Z,98371.48
2019-05-05T14:04:14.554Z,98371.27
2019-05-05T14:06:44.444Z,98373.94
2019-05-05T14:09:13.975Z,98376.02
2019-05-05T14:11:44.546Z,98380.30
2019-05-05T14:14:13.910Z,98385.63
2019-05-05T14:16:44.665Z,98406.55
2019-05-05T14:19:14.626Z,98412.92
2019-05-05T14:21:44.601Z,98410.19
2019-05-05T14:24:19.333Z,98404.28
2019-05-05T14:26:49.809Z,98412.56
2019-05-05T14:29:23.989Z,98418.36
2019-05-05T14:31:55.523Z,98421.55
2019-05-05T14:34:25.969Z,98418.98
2019-05-05T14:37:16.322Z,98413.70
2019-05-05T14:39:46.184Z,98412.91
2019-05-05T14:42:14.919Z,98424.17
2019-05-05T14:44:44.158Z,98422.91
2019-05-05T14:47:13.627Z,98424.05
2019-05-05T14:49:44.402Z,98421.56
2019-05-05T14:52:13.751Z,98434.29
2019-05-05T14:54:43.456Z,98428.48
2019-05-05T14:57:14.031Z,98433.88
2019-05-05T14:59:43.730Z,98431.48
2019-05-05T15:02:14.429Z,98437.18
2019-05-05T15:04:44.338Z,98438.14
2019-05-05T15:07:16.364Z,98422.56
2019-05-05T15:09:50.896Z,98438.34
2019-05-05T15:12:23.575Z,98447.64
2019-05-05T15:14:51.854Z,98440.83
2019-05-05T15:17:20.584Z,98439.33
2019-05-05T15:19:49.488Z,98438.21
2019-05-05T15:22:19.715Z,98433.16
2019-05-05T15:24:48.782Z,98434.13
2019-05-05T15:27:17.541Z,98427.70
2019-05-05T15:29:47.533Z,98426.33
2019-05-05T15:32:16.270Z,98424.81
2019-05-05T15:34:45.631Z,98429.36
2019-05-05T15:37:14.565Z,98434.53
2019-05-05T15:39:44.144Z,98433.91
2019-05-05T15:42:14.036Z,98430.91
2019-05-05T15:44:43.918Z,98424.34
2019-05-05T15:47:12.750Z,98415.16
2019-05-05T15:49:41.576Z,98413.22
2019-05-05T15:52:10.341Z,98410.20
2019-05-05T15:54:59.342Z,98400.93
2019-05-05T15:57:28.067Z,98395.09
2019-05-05T15:59:56.937Z,98394.97
2019-05-05T16:02:25.667Z,98384.42
2019-05-05T16:04:54.390Z,98367.03
2019-05-05T16:07:26.987Z,98386.66
2019-05-05T16:09:55.714Z,98391.64
2019-05-05T16:12:31.965Z,98391.08
2019-05-05T16:14:56.609Z,98380.48
2019-05-05T16:17:35.877Z,98393.13
2019-05-05T16:20:08.743Z,98397.81
2019-05-05T16:22:39.041Z,98395.13
2019-05-05T16:25:11.130Z,98397.58
2019-05-05T16:27:41.566Z,98394.73
2019-05-05T16:30:14.462Z,98391.70
2019-05-05T16:32:43.283Z,98382.44
2019-05-05T16:35:14.577Z,98383.80
2019-05-05T16:37:43.449Z,98371.72
2019-05-05T16:40:14.467Z,98368.73
2019-05-05T16:42:44.020Z,98377.86
2019-05-05T16:45:16.481Z,98379.74
2019-05-05T16:47:45.447Z,98390.75
2019-05-05T16:50:15.031Z,98390.22
2019-05-05T16:52:46.075Z,98390.77
2019-05-05T16:55:16.910Z,98389.64
2019-05-05T16:57:45.746Z,98388.32
2019-05-05T17:00:15.201Z,98398.37
2019-05-05T17:02:44.475Z,98394.03
2019-05-05T17:05:13.786Z,98403.89
2019-05-05T17:07:42.466Z,98417.55
2019-05-05T17:10:13.820Z,98415.08
2019-05-05T17:12:44.290Z,98409.20
2019-05-05T17:15:30.307Z,98401.27
2019-05-05T17:18:10.203Z,98402.58
2019-05-05T17:20:53.546Z,98404.86
2019-05-05T17:23:23.868Z,98409.61
2019-05-05T17:25:53.794Z,98398.44
2019-05-05T17:28:23.865Z,98389.91
2019-05-05T17:30:54.322Z,98391.26
2019-05-05T17:33:24.131Z,98386.34
2019-05-05T17:35:53.929Z,98383.47
2019-05-05T17:38:24.424Z,98389.89
2019-05-05T17:40:54.766Z,98383.08
2019-05-05T17:43:40.264Z,98376.81
2019-05-05T17:46:10.558Z,98381.91
2019-05-05T17:48:54.077Z,98380.39
2019-05-05T17:51:26.287Z,98376.38
2019-05-05T17:54:05.471Z,98378.81
2019-05-05T17:56:34.189Z,98382.73
2019-05-05T17:59:04.413Z,98384.36
2019-05-05T18:01:34.763Z,98389.44
2019-05-05T18:04:04.131Z,98393.77
2019-05-05T18:06:34.593Z,98386.91
2019-05-05T18:09:18.056Z,98394.08
2019-05-05T18:12:01.749Z,98395.64
2019-05-05T18:14:34.427Z,98392.92
2019-05-05T18:17:04.212Z,98390.80
2019-05-05T18:19:34.022Z,98390.54
2019-05-05T18:22:03.151Z,98393.14
2019-05-05T18:24:33.569Z,98387.59
2019-05-05T18:27:04.419Z,98392.45
2019-05-05T18:29:34.081Z,98397.30
2019-05-05T18:32:04.319Z,98401.77
2019-05-05T18:34:33.223Z,98398.35
2019-05-05T18:37:03.764Z,98408.66
2019-05-05T18:39:34.276Z,98410.88
2019-05-05T18:42:04.732Z,98411.02
2019-05-05T18:44:41.312Z,98419.38
2019-05-05T18:47:17.934Z,98411.06
2019-05-05T18:49:44.983Z,98417.98
2019-05-05T18:52:14.078Z,98418.97
2019-05-05T18:54:43.610Z,98418.75
2019-05-05T18:57:12.809Z,98421.77
2019-05-05T18:59:44.631Z,98417.13
2019-05-05T19:02:14.771Z,98422.52
2019-05-05T19:04:50.917Z,98419.02
2019-05-05T19:07:21.223Z,98427.78
2019-05-05T19:09:53.835Z,98427.55
2019-05-05T19:12:34.670Z,98429.03
2019-05-05T19:15:04.488Z,98433.83
2019-05-05T19:17:34.508Z,98443.23
2019-05-05T19:20:06.520Z,98443.30
2019-05-05T19:22:36.116Z,98440.88
2019-05-05T19:25:16.468Z,98444.14
2019-05-05T19:27:49.564Z,98441.22
2019-05-05T19:30:18.586Z,98446.59
2019-05-05T19:32:47.347Z,98454.45
2019-05-05T19:35:19.184Z,98458.86
2019-05-05T19:37:48.045Z,98447.30
2019-05-05T19:40:17.070Z,98443.09
2019-05-05T19:42:48.961Z,98442.31
2019-05-05T19:45:19.158Z,98446.86
2019-05-05T19:47:50.782Z,98445.36
2019-05-05T19:50:37.274Z,98450.84
2019-05-05T19:53:07.735Z,98452.00
2019-05-05T19:55:38.981Z,98451.33
2019-05-05T19:58:09.427Z,98450.98
2019-05-05T20:00:39.679Z,98458.85
2019-05-05T20:03:10.983Z,98457.90
2019-05-05T20:05:43.101Z,98450.61
2019-05-05T20:08:10.845Z,98450.67
2019-05-05T20:10:39.889Z,98454.75
2019-05-05T20:13:10.085Z,98449.41
2019-05-05T20:15:40.497Z,98447.97
2019-05-05T20:18:09.234Z,98442.31
2019-05-05T20:20:38.192Z,98440.90
2019-05-05T20:23:07.000Z,98445.66
2019-05-05T20:25:35.717Z,98447.53
2019-05-05T20:28:04.618Z,98442.50
2019-05-05T20:30:34.236Z,98447.74
2019-05-05T20:33:06.175Z,98451.43
2019-05-05T20:37:24.668Z,98436.31
2019-05-05T20:38:37.727Z,98443.67
2019-05-05T20:41:08.105Z,98447.27
2019-05-05T20:43:39.967Z,98444.07
2019-05-05T20:46:08.896Z,98434.89
2019-05-05T20:48:40.956Z,98434.27
2019-05-05T20:51:08.252Z,98436.78
2019-05-05T20:53:36.984Z,98437.28
2019-05-05T20:56:05.998Z,98433.38
2019-05-05T20:58:34.996Z,98433.11
2019-05-05T21:01:13.985Z,98433.17
2019-05-05T21:03:46.094Z,98439.43
2019-05-05T21:06:14.846Z,98440.66
2019-05-05T21:08:44.178Z,98443.42
2019-05-05T21:11:14.120Z,98442.31
2019-05-05T21:13:45.019Z,98439.54
2019-05-05T21:16:14.250Z,98435.01
2019-05-05T21:18:43.312Z,98444.11
2019-05-05T21:21:13.950Z,98440.14
2019-05-05T21:23:47.477Z,98441.92
2019-05-05T21:26:20.794Z,98451.06
2019-05-05T21:28:49.518Z,98453.14
2019-05-05T21:31:18.232Z,98443.88
2019-05-05T21:33:47.100Z,98445.11
2019-05-05T21:36:15.824Z,98437.22
2019-05-05T21:38:44.547Z,98434.45
2019-05-05T21:41:13.910Z,98434.26
2019-05-05T21:43:44.668Z,98442.42
2019-05-05T21:46:13.167Z,98437.43
2019-05-05T21:48:41.935Z,98431.18
2019-05-05T21:51:30.438Z,98440.53
2019-05-05T21:54:00.780Z,98431.89
2019-05-05T21:56:34.202Z,98433.39
2019-05-05T21:59:04.243Z,98430.21
2019-05-05T22:01:39.781Z,98427.17
2019-05-05T22:04:04.828Z,98429.42
2019-05-05T22:06:33.692Z,98430.53
2019-05-05T22:09:04.049Z,98429.55
2019-05-05T22:11:32.894Z,98428.63
2019-05-05T22:14:01.623Z,98432.59
2019-05-05T22:16:30.483Z,98432.83
2019-05-05T22:18:59.206Z,98434.66
2019-05-05T22:21:35.665Z,98429.33
2019-05-05T22:24:16.492Z,98428.15
2019-05-05T22:26:45.619Z,98426.83
2019-05-05T22:29:17.040Z,98427.59
2019-05-05T22:31:45.816Z,98430.77
2019-05-05T22:34:14.764Z,98437.30
2019-05-05T22:36:44.818Z,98435.76
2019-05-05T22:39:16.829Z,98426.63
2019-05-05T22:41:44.994Z,98429.86
2019-05-05T22:44:14.101Z,98430.58
2019-05-05T22:46:43.123Z,98431.18
2019-05-05T22:49:12.146Z,98432.44
2019-05-05T22:51:40.866Z,98426.90
2019-05-05T22:54:10.061Z,98423.22
2019-05-05T22:56:38.783Z,98423.48
2019-05-05T22:59:07.707Z,98419.91
2019-05-05T23:01:36.598Z,98417.63
2019-05-05T23:04:25.274Z,98423.43
2019-05-05T23:07:04.956Z,98417.89
2019-05-05T23:09:33.679Z,98419.02
2019-05-05T23:12:04.224Z,98419.51
2019-05-05T23:14:34.226Z,98417.69
2019-05-05T23:17:19.688Z,98414.98
2019-05-05T23:19:50.020Z,98418.47
2019-05-05T23:22:36.722Z,98425.73
2019-05-05T23:25:08.040Z,98424.83
2019-05-05T23:27:50.410Z,98426.20
2019-05-05T23:30:23.881Z,98424.00
2019-05-05T23:32:54.610Z,98420.46
2019-05-05T23:35:23.935Z,98423.28
2019-05-05T23:37:55.065Z,98430.91
2019-05-05T23:40:26.298Z,98433.48
2019-05-05T23:42:55.092Z,98430.72
2019-05-05T23:45:25.165Z,98436.98
2019-05-05T23:47:54.656Z,98427.38
2019-05-05T23:50:24.008Z,98430.45
2019-05-05T23:52:54.427Z,98432.09
2019-05-05T23:55:24.205Z,98427.73
2019-05-05T23:57:54.624Z,98426.41
